sensor_id;sensor_type;location;lat;lon;timestamp;P1;durP1;ratioP1;P2;durP2;ratioP2
20810;SDS011;10566;52.928;10.522;2023-04-15T00:00:49;17.77;;;10.87;;
20810;SDS011;10566;52.928;10.522;2023-04-15T00:03:16;17.67;;;10.30;;
20810;SDS011;10566;52.928;10.522;2023-04-15T00:05:42;18.07;;;11.13;;
20810;SDS011;10566;52.928;10.522;2023-04-15T00:08:08;19.53;;;11.30;;
20810;SDS011;10566;52.928;10.522;2023-04-15T00:10:34;22.47;;;11.30;;
20810;SDS011;10566;52.928;10.522;2023-04-15T00:13:00;20.93;;;12.10;;
20810;SDS011;10566;52.928;10.522;2023-04-15T00:15:28;20.33;;;11.37;;
20810;SDS011;10566;52.928;10.522;2023-04-15T00:17:54;21.97;;;11.93;;
20810;SDS011;10566;52.928;10.522;2023-04-15T00:20:20;20.00;;;12.03;;
20810;SDS011;10566;52.928;10.522;2023-04-15T00:22:46;21.57;;;13.10;;
20810;SDS011;10566;52.928;10.522;2023-04-15T00:25:12;19.33;;;11.83;;
20810;SDS011;10566;52.928;10.522;2023-04-15T00:27:39;21.50;;;12.90;;
20810;SDS011;10566;52.928;10.522;2023-04-15T00:30:05;21.10;;;12.83;;
20810;SDS011;10566;52.928;10.522;2023-04-15T00:32:31;21.97;;;12.40;;
20810;SDS011;10566;52.928;10.522;2023-04-15T00:34:58;24.17;;;12.60;;
20810;SDS011;10566;52.928;10.522;2023-04-15T00:37:24;20.67;;;12.53;;
20810;SDS011;10566;52.928;10.522;2023-04-15T00:39:50;21.53;;;12.10;;
20810;SDS011;10566;52.928;10.522;2023-04-15T00:42:16;22.20;;;12.03;;
20810;SDS011;10566;52.928;10.522;2023-04-15T00:44:43;21.73;;;12.10;;
20810;SDS011;10566;52.928;10.522;2023-04-15T00:47:08;21.00;;;12.43;;
20810;SDS011;10566;52.928;10.522;2023-04-15T00:49:35;22.67;;;13.10;;
20810;SDS011;10566;52.928;10.522;2023-04-15T00:52:01;23.10;;;12.80;;
20810;SDS011;10566;52.928;10.522;2023-04-15T00:54:27;22.63;;;12.43;;
20810;SDS011;10566;52.928;10.522;2023-04-15T00:56:53;22.07;;;12.57;;
20810;SDS011;10566;52.928;10.522;2023-04-15T00:59:20;20.17;;;12.17;;
20810;SDS011;10566;52.928;10.522;2023-04-15T01:01:46;24.37;;;12.70;;
20810;SDS011;10566;52.928;10.522;2023-04-15T01:04:12;22.27;;;12.70;;
20810;SDS011;10566;52.928;10.522;2023-04-15T01:06:39;23.03;;;12.83;;
20810;SDS011;10566;52.928;10.522;2023-04-15T01:09:05;20.80;;;11.47;;
20810;SDS011;10566;52.928;10.522;2023-04-15T01:11:31;19.90;;;11.93;;
20810;SDS011;10566;52.928;10.522;2023-04-15T01:14:00;23.27;;;12.83;;
20810;SDS011;10566;52.928;10.522;2023-04-15T01:16:26;19.47;;;11.60;;
20810;SDS011;10566;52.928;10.522;2023-04-15T01:18:52;19.93;;;11.57;;
20810;SDS011;10566;52.928;10.522;2023-04-15T01:21:18;19.50;;;11.33;;
20810;SDS011;10566;52.928;10.522;2023-04-15T01:23:46;20.60;;;11.80;;
20810;SDS011;10566;52.928;10.522;2023-04-15T01:26:12;21.13;;;11.70;;
20810;SDS011;10566;52.928;10.522;2023-04-15T01:28:39;18.20;;;10.90;;
20810;SDS011;10566;52.928;10.522;2023-04-15T01:31:05;20.57;;;11.70;;
20810;SDS011;10566;52.928;10.522;2023-04-15T01:33:31;20.17;;;11.60;;
20810;SDS011;10566;52.928;10.522;2023-04-15T01:35:57;18.70;;;10.57;;
20810;SDS011;10566;52.928;10.522;2023-04-15T01:38:25;19.07;;;10.70;;
20810;SDS011;10566;52.928;10.522;2023-04-15T01:40:52;18.47;;;9.93;;
20810;SDS011;10566;52.928;10.522;2023-04-15T01:43:18;17.40;;;10.43;;
20810;SDS011;10566;52.928;10.522;2023-04-15T01:45:44;16.40;;;10.13;;
20810;SDS011;10566;52.928;10.522;2023-04-15T01:48:11;17.63;;;10.17;;
20810;SDS011;10566;52.928;10.522;2023-04-15T01:50:37;18.03;;;10.57;;
20810;SDS011;10566;52.928;10.522;2023-04-15T01:53:03;19.57;;;10.50;;
20810;SDS011;10566;52.928;10.522;2023-04-15T01:55:29;17.90;;;10.23;;
20810;SDS011;10566;52.928;10.522;2023-04-15T01:57:55;17.40;;;10.00;;
20810;SDS011;10566;52.928;10.522;2023-04-15T02:00:21;16.17;;;9.53;;
20810;SDS011;10566;52.928;10.522;2023-04-15T02:02:48;15.93;;;9.33;;
20810;SDS011;10566;52.928;10.522;2023-04-15T02:05:14;16.63;;;9.60;;
20810;SDS011;10566;52.928;10.522;2023-04-15T02:07:41;15.40;;;9.50;;
20810;SDS011;10566;52.928;10.522;2023-04-15T02:10:07;19.37;;;9.97;;
20810;SDS011;10566;52.928;10.522;2023-04-15T02:12:34;15.10;;;9.33;;
20810;SDS011;10566;52.928;10.522;2023-04-15T02:15:00;16.73;;;9.30;;
20810;SDS011;10566;52.928;10.522;2023-04-15T02:17:26;15.43;;;9.00;;
20810;SDS011;10566;52.928;10.522;2023-04-15T02:19:52;16.37;;;9.93;;
20810;SDS011;10566;52.928;10.522;2023-04-15T02:22:18;16.50;;;9.53;;
20810;SDS011;10566;52.928;10.522;2023-04-15T02:24:44;16.20;;;10.17;;
20810;SDS011;10566;52.928;10.522;2023-04-15T02:27:14;16.63;;;9.70;;
20810;SDS011;10566;52.928;10.522;2023-04-15T02:29:40;17.10;;;10.50;;
20810;SDS011;10566;52.928;10.522;2023-04-15T02:32:06;16.27;;;10.07;;
20810;SDS011;10566;52.928;10.522;2023-04-15T02:34:32;17.03;;;10.30;;
20810;SDS011;10566;52.928;10.522;2023-04-15T02:36:58;16.93;;;10.43;;
20810;SDS011;10566;52.928;10.522;2023-04-15T02:39:24;16.90;;;10.27;;
20810;SDS011;10566;52.928;10.522;2023-04-15T02:41:50;17.90;;;10.33;;
20810;SDS011;10566;52.928;10.522;2023-04-15T02:44:16;16.03;;;9.63;;
20810;SDS011;10566;52.928;10.522;2023-04-15T02:46:44;17.93;;;9.57;;
20810;SDS011;10566;52.928;10.522;2023-04-15T02:49:16;17.77;;;9.23;;
20810;SDS011;10566;52.928;10.522;2023-04-15T02:51:42;15.63;;;8.73;;
20810;SDS011;10566;52.928;10.522;2023-04-15T02:54:11;15.10;;;9.40;;
20810;SDS011;10566;52.928;10.522;2023-04-15T02:56:37;16.67;;;9.47;;
20810;SDS011;10566;52.928;10.522;2023-04-15T02:59:03;15.37;;;9.50;;
20810;SDS011;10566;52.928;10.522;2023-04-15T03:01:30;15.10;;;8.97;;
20810;SDS011;10566;52.928;10.522;2023-04-15T03:03:56;15.17;;;9.13;;
20810;SDS011;10566;52.928;10.522;2023-04-15T03:06:22;16.33;;;9.20;;
20810;SDS011;10566;52.928;10.522;2023-04-15T03:08:48;15.53;;;8.90;;
20810;SDS011;10566;52.928;10.522;2023-04-15T03:11:14;16.87;;;9.30;;
20810;SDS011;10566;52.928;10.522;2023-04-15T03:13:41;15.20;;;8.97;;
20810;SDS011;10566;52.928;10.522;2023-04-15T03:16:07;14.53;;;8.47;;
20810;SDS011;10566;52.928;10.522;2023-04-15T03:18:33;14.30;;;9.07;;
20810;SDS011;10566;52.928;10.522;2023-04-15T03:20:59;13.97;;;8.83;;
20810;SDS011;10566;52.928;10.522;2023-04-15T03:23:26;13.70;;;8.80;;
20810;SDS011;10566;52.928;10.522;2023-04-15T03:25:52;14.83;;;8.60;;
20810;SDS011;10566;52.928;10.522;2023-04-15T03:28:21;14.63;;;8.83;;
20810;SDS011;10566;52.928;10.522;2023-04-15T03:30:47;14.77;;;8.73;;
20810;SDS011;10566;52.928;10.522;2023-04-15T03:33:13;14.70;;;8.83;;
20810;SDS011;10566;52.928;10.522;2023-04-15T03:35:39;13.90;;;8.57;;
20810;SDS011;10566;52.928;10.522;2023-04-15T03:38:05;13.73;;;8.00;;
20810;SDS011;10566;52.928;10.522;2023-04-15T03:40:31;13.53;;;8.50;;
20810;SDS011;10566;52.928;10.522;2023-04-15T03:42:57;13.50;;;8.33;;
20810;SDS011;10566;52.928;10.522;2023-04-15T03:45:23;12.93;;;7.70;;
20810;SDS011;10566;52.928;10.522;2023-04-15T03:47:49;14.30;;;8.80;;
20810;SDS011;10566;52.928;10.522;2023-04-15T03:50:15;13.40;;;7.90;;
20810;SDS011;10566;52.928;10.522;2023-04-15T03:52:41;13.00;;;8.17;;
20810;SDS011;10566;52.928;10.522;2023-04-15T03:55:07;15.43;;;8.87;;
20810;SDS011;10566;52.928;10.522;2023-04-15T03:57:33;13.93;;;8.83;;
20810;SDS011;10566;52.928;10.522;2023-04-15T04:00:03;13.97;;;8.60;;
20810;SDS011;10566;52.928;10.522;2023-04-15T04:02:29;13.77;;;8.90;;
20810;SDS011;10566;52.928;10.522;2023-04-15T04:04:55;15.20;;;8.73;;
20810;SDS011;10566;52.928;10.522;2023-04-15T04:07:22;13.07;;;8.23;;
20810;SDS011;10566;52.928;10.522;2023-04-15T04:09:48;14.20;;;8.57;;
20810;SDS011;10566;52.928;10.522;2023-04-15T04:12:14;15.37;;;9.20;;
20810;SDS011;10566;52.928;10.522;2023-04-15T04:14:40;15.90;;;9.60;;
20810;SDS011;10566;52.928;10.522;2023-04-15T04:17:06;15.60;;;10.10;;
20810;SDS011;10566;52.928;10.522;2023-04-15T04:19:33;15.40;;;9.37;;
20810;SDS011;10566;52.928;10.522;2023-04-15T04:21:59;15.40;;;9.10;;
20810;SDS011;10566;52.928;10.522;2023-04-15T04:24:25;16.70;;;10.20;;
20810;SDS011;10566;52.928;10.522;2023-04-15T04:26:51;17.73;;;11.13;;
20810;SDS011;10566;52.928;10.522;2023-04-15T04:29:17;18.03;;;10.40;;
20810;SDS011;10566;52.928;10.522;2023-04-15T04:31:43;18.93;;;10.40;;
20810;SDS011;10566;52.928;10.522;2023-04-15T04:34:09;17.53;;;10.63;;
20810;SDS011;10566;52.928;10.522;2023-04-15T04:36:36;21.27;;;11.53;;
20810;SDS011;10566;52.928;10.522;2023-04-15T04:39:02;18.77;;;12.03;;
20810;SDS011;10566;52.928;10.522;2023-04-15T04:41:28;22.17;;;12.17;;
20810;SDS011;10566;52.928;10.522;2023-04-15T04:43:54;22.80;;;13.20;;
20810;SDS011;10566;52.928;10.522;2023-04-15T04:46:20;22.67;;;13.60;;
20810;SDS011;10566;52.928;10.522;2023-04-15T04:48:47;22.93;;;13.27;;
20810;SDS011;10566;52.928;10.522;2023-04-15T04:51:13;22.83;;;13.37;;
20810;SDS011;10566;52.928;10.522;2023-04-15T04:53:39;23.07;;;13.73;;
20810;SDS011;10566;52.928;10.522;2023-04-15T04:56:07;26.03;;;13.77;;
20810;SDS011;10566;52.928;10.522;2023-04-15T04:58:33;25.87;;;13.77;;
20810;SDS011;10566;52.928;10.522;2023-04-15T05:00:59;23.97;;;13.30;;
20810;SDS011;10566;52.928;10.522;2023-04-15T05:03:25;27.10;;;14.60;;
20810;SDS011;10566;52.928;10.522;2023-04-15T05:05:51;25.43;;;14.47;;
20810;SDS011;10566;52.928;10.522;2023-04-15T05:08:17;25.47;;;13.90;;
20810;SDS011;10566;52.928;10.522;2023-04-15T05:10:43;26.87;;;14.43;;
20810;SDS011;10566;52.928;10.522;2023-04-15T05:13:09;29.53;;;15.57;;
20810;SDS011;10566;52.928;10.522;2023-04-15T05:15:36;26.87;;;14.47;;
20810;SDS011;10566;52.928;10.522;2023-04-15T05:18:03;26.57;;;14.77;;
20810;SDS011;10566;52.928;10.522;2023-04-15T05:20:29;27.33;;;14.13;;
20810;SDS011;10566;52.928;10.522;2023-04-15T05:22:55;28.23;;;14.70;;
20810;SDS011;10566;52.928;10.522;2023-04-15T05:25:21;27.07;;;14.17;;
20810;SDS011;10566;52.928;10.522;2023-04-15T05:27:47;33.63;;;14.80;;
20810;SDS011;10566;52.928;10.522;2023-04-15T05:30:13;27.40;;;14.40;;
20810;SDS011;10566;52.928;10.522;2023-04-15T05:32:39;27.13;;;14.20;;
20810;SDS011;10566;52.928;10.522;2023-04-15T05:35:06;31.87;;;15.90;;
20810;SDS011;10566;52.928;10.522;2023-04-15T05:37:32;28.00;;;15.70;;
20810;SDS011;10566;52.928;10.522;2023-04-15T05:39:58;32.30;;;15.43;;
20810;SDS011;10566;52.928;10.522;2023-04-15T05:42:24;28.00;;;15.40;;
20810;SDS011;10566;52.928;10.522;2023-04-15T05:44:51;32.27;;;15.43;;
20810;SDS011;10566;52.928;10.522;2023-04-15T05:47:17;32.53;;;17.00;;
20810;SDS011;10566;52.928;10.522;2023-04-15T05:49:43;34.97;;;18.17;;
20810;SDS011;10566;52.928;10.522;2023-04-15T05:52:09;36.70;;;18.63;;
20810;SDS011;10566;52.928;10.522;2023-04-15T05:54:35;40.03;;;19.70;;
20810;SDS011;10566;52.928;10.522;2023-04-15T05:57:01;37.13;;;19.60;;
20810;SDS011;10566;52.928;10.522;2023-04-15T05:59:27;42.73;;;20.87;;
20810;SDS011;10566;52.928;10.522;2023-04-15T06:01:53;43.87;;;22.00;;
20810;SDS011;10566;52.928;10.522;2023-04-15T06:04:20;43.63;;;21.43;;
20810;SDS011;10566;52.928;10.522;2023-04-15T06:06:46;52.63;;;25.77;;
20810;SDS011;10566;52.928;10.522;2023-04-15T06:09:12;51.50;;;26.33;;
20810;SDS011;10566;52.928;10.522;2023-04-15T06:11:38;57.40;;;27.43;;
20810;SDS011;10566;52.928;10.522;2023-04-15T06:14:05;57.70;;;28.30;;
20810;SDS011;10566;52.928;10.522;2023-04-15T06:16:31;55.87;;;27.83;;
20810;SDS011;10566;52.928;10.522;2023-04-15T06:18:57;61.47;;;29.23;;
20810;SDS011;10566;52.928;10.522;2023-04-15T06:21:23;61.27;;;29.70;;
20810;SDS011;10566;52.928;10.522;2023-04-15T06:23:49;54.20;;;28.27;;
20810;SDS011;10566;52.928;10.522;2023-04-15T06:26:15;59.87;;;29.30;;
20810;SDS011;10566;52.928;10.522;2023-04-15T06:28:41;56.77;;;28.57;;
20810;SDS011;10566;52.928;10.522;2023-04-15T06:31:07;61.23;;;29.63;;
20810;SDS011;10566;52.928;10.522;2023-04-15T06:33:33;59.97;;;28.93;;
20810;SDS011;10566;52.928;10.522;2023-04-15T06:35:59;61.37;;;29.30;;
20810;SDS011;10566;52.928;10.522;2023-04-15T06:38:25;56.30;;;28.87;;
20810;SDS011;10566;52.928;10.522;2023-04-15T06:40:52;60.73;;;29.40;;
20810;SDS011;10566;52.928;10.522;2023-04-15T06:43:21;55.43;;;27.47;;
20810;SDS011;10566;52.928;10.522;2023-04-15T06:45:47;59.23;;;28.13;;
20810;SDS011;10566;52.928;10.522;2023-04-15T06:48:13;57.33;;;28.50;;
20810;SDS011;10566;52.928;10.522;2023-04-15T06:50:39;57.63;;;28.60;;
20810;SDS011;10566;52.928;10.522;2023-04-15T06:53:06;56.13;;;28.73;;
20810;SDS011;10566;52.928;10.522;2023-04-15T06:55:32;56.17;;;28.17;;
20810;SDS011;10566;52.928;10.522;2023-04-15T06:57:58;54.73;;;26.63;;
20810;SDS011;10566;52.928;10.522;2023-04-15T07:00:24;54.13;;;27.30;;
20810;SDS011;10566;52.928;10.522;2023-04-15T07:02:50;53.77;;;26.63;;
20810;SDS011;10566;52.928;10.522;2023-04-15T07:05:16;59.10;;;28.53;;
20810;SDS011;10566;52.928;10.522;2023-04-15T07:07:43;52.27;;;26.33;;
20810;SDS011;10566;52.928;10.522;2023-04-15T07:10:09;54.10;;;27.90;;
20810;SDS011;10566;52.928;10.522;2023-04-15T07:12:36;53.80;;;27.07;;
20810;SDS011;10566;52.928;10.522;2023-04-15T07:15:02;49.10;;;26.20;;
20810;SDS011;10566;52.928;10.522;2023-04-15T07:17:28;53.07;;;26.20;;
20810;SDS011;10566;52.928;10.522;2023-04-15T07:19:54;47.03;;;24.93;;
20810;SDS011;10566;52.928;10.522;2023-04-15T07:22:20;51.40;;;26.20;;
20810;SDS011;10566;52.928;10.522;2023-04-15T07:24:46;51.73;;;27.10;;
20810;SDS011;10566;52.928;10.522;2023-04-15T07:27:12;49.47;;;26.43;;
20810;SDS011;10566;52.928;10.522;2023-04-15T07:29:38;49.57;;;25.77;;
20810;SDS011;10566;52.928;10.522;2023-04-15T07:32:04;48.93;;;25.83;;
20810;SDS011;10566;52.928;10.522;2023-04-15T07:34:30;49.10;;;25.67;;
20810;SDS011;10566;52.928;10.522;2023-04-15T07:36:56;49.90;;;25.97;;
20810;SDS011;10566;52.928;10.522;2023-04-15T07:39:25;56.03;;;28.80;;
20810;SDS011;10566;52.928;10.522;2023-04-15T07:41:51;51.93;;;26.47;;
20810;SDS011;10566;52.928;10.522;2023-04-15T07:44:17;52.10;;;26.80;;
20810;SDS011;10566;52.928;10.522;2023-04-15T07:46:43;50.57;;;26.83;;
20810;SDS011;10566;52.928;10.522;2023-04-15T07:49:09;49.20;;;25.83;;
20810;SDS011;10566;52.928;10.522;2023-04-15T07:51:35;53.17;;;26.50;;
20810;SDS011;10566;52.928;10.522;2023-04-15T07:54:01;52.27;;;26.03;;
20810;SDS011;10566;52.928;10.522;2023-04-15T07:56:28;51.47;;;26.97;;
20810;SDS011;10566;52.928;10.522;2023-04-15T07:58:54;49.43;;;27.23;;
20810;SDS011;10566;52.928;10.522;2023-04-15T08:01:20;54.23;;;26.93;;
20810;SDS011;10566;52.928;10.522;2023-04-15T08:03:46;53.83;;;27.23;;
20810;SDS011;10566;52.928;10.522;2023-04-15T08:06:12;53.50;;;27.13;;
20810;SDS011;10566;52.928;10.522;2023-04-15T08:08:38;53.70;;;26.83;;
20810;SDS011;10566;52.928;10.522;2023-04-15T08:11:04;55.23;;;27.57;;
20810;SDS011;10566;52.928;10.522;2023-04-15T08:13:30;57.97;;;28.53;;
20810;SDS011;10566;52.928;10.522;2023-04-15T08:18:42;57.90;;;28.33;;
20810;SDS011;10566;52.928;10.522;2023-04-15T08:21:09;60.63;;;29.53;;
20810;SDS011;10566;52.928;10.522;2023-04-15T08:23:35;61.50;;;31.20;;
20810;SDS011;10566;52.928;10.522;2023-04-15T08:26:01;60.90;;;30.17;;
20810;SDS011;10566;52.928;10.522;2023-04-15T08:28:27;66.27;;;30.70;;
20810;SDS011;10566;52.928;10.522;2023-04-15T08:30:53;59.67;;;29.40;;
20810;SDS011;10566;52.928;10.522;2023-04-15T08:33:20;62.83;;;31.33;;
20810;SDS011;10566;52.928;10.522;2023-04-15T08:35:46;65.83;;;32.50;;
20810;SDS011;10566;52.928;10.522;2023-04-15T08:38:12;64.40;;;30.63;;
20810;SDS011;10566;52.928;10.522;2023-04-15T08:40:41;68.97;;;31.20;;
20810;SDS011;10566;52.928;10.522;2023-04-15T08:43:09;65.17;;;32.37;;
20810;SDS011;10566;52.928;10.522;2023-04-15T08:45:37;65.83;;;31.23;;
20810;SDS011;10566;52.928;10.522;2023-04-15T08:48:04;69.77;;;32.13;;
20810;SDS011;10566;52.928;10.522;2023-04-15T08:50:31;73.33;;;33.50;;
20810;SDS011;10566;52.928;10.522;2023-04-15T08:53:00;68.43;;;32.10;;
20810;SDS011;10566;52.928;10.522;2023-04-15T08:55:28;75.83;;;33.67;;
20810;SDS011;10566;52.928;10.522;2023-04-15T08:57:54;72.73;;;33.37;;
20810;SDS011;10566;52.928;10.522;2023-04-15T09:00:21;71.10;;;34.30;;
20810;SDS011;10566;52.928;10.522;2023-04-15T09:02:47;72.10;;;33.37;;
20810;SDS011;10566;52.928;10.522;2023-04-15T09:05:13;73.97;;;33.87;;
20810;SDS011;10566;52.928;10.522;2023-04-15T09:07:40;67.07;;;30.77;;
20810;SDS011;10566;52.928;10.522;2023-04-15T09:10:06;76.63;;;34.47;;
20810;SDS011;10566;52.928;10.522;2023-04-15T09:12:33;80.37;;;34.20;;
20810;SDS011;10566;52.928;10.522;2023-04-15T09:15:00;81.13;;;34.00;;
20810;SDS011;10566;52.928;10.522;2023-04-15T09:17:26;79.10;;;34.83;;
20810;SDS011;10566;52.928;10.522;2023-04-15T09:20:06;84.37;;;36.47;;
20810;SDS011;10566;52.928;10.522;2023-04-15T09:22:32;83.83;;;35.90;;
20810;SDS011;10566;52.928;10.522;2023-04-15T09:24:58;84.50;;;36.27;;
20810;SDS011;10566;52.928;10.522;2023-04-15T09:27:25;79.97;;;35.17;;
20810;SDS011;10566;52.928;10.522;2023-04-15T09:29:52;81.33;;;34.97;;
20810;SDS011;10566;52.928;10.522;2023-04-15T09:32:18;81.13;;;36.33;;
20810;SDS011;10566;52.928;10.522;2023-04-15T09:34:47;78.33;;;35.33;;
20810;SDS011;10566;52.928;10.522;2023-04-15T09:37:13;83.87;;;35.47;;
20810;SDS011;10566;52.928;10.522;2023-04-15T09:39:46;78.33;;;35.17;;
20810;SDS011;10566;52.928;10.522;2023-04-15T09:42:13;82.30;;;36.30;;
20810;SDS011;10566;52.928;10.522;2023-04-15T09:44:41;78.43;;;35.37;;
20810;SDS011;10566;52.928;10.522;2023-04-15T09:47:07;82.83;;;36.40;;
20810;SDS011;10566;52.928;10.522;2023-04-15T09:49:33;81.83;;;34.97;;
20810;SDS011;10566;52.928;10.522;2023-04-15T09:52:00;81.77;;;36.77;;
20810;SDS011;10566;52.928;10.522;2023-04-15T09:54:36;84.00;;;36.33;;
20810;SDS011;10566;52.928;10.522;2023-04-15T09:57:06;85.87;;;36.97;;
20810;SDS011;10566;52.928;10.522;2023-04-15T09:59:33;78.37;;;34.03;;
20810;SDS011;10566;52.928;10.522;2023-04-15T10:01:59;83.87;;;36.30;;
20810;SDS011;10566;52.928;10.522;2023-04-15T10:04:26;81.90;;;36.33;;
20810;SDS011;10566;52.928;10.522;2023-04-15T10:06:52;83.87;;;36.20;;
20810;SDS011;10566;52.928;10.522;2023-04-15T10:09:19;80.63;;;36.53;;
20810;SDS011;10566;52.928;10.522;2023-04-15T10:11:45;80.50;;;35.47;;
20810;SDS011;10566;52.928;10.522;2023-04-15T10:14:13;77.63;;;35.97;;
20810;SDS011;10566;52.928;10.522;2023-04-15T10:16:40;78.23;;;35.73;;
20810;SDS011;10566;52.928;10.522;2023-04-15T10:19:07;78.03;;;35.70;;
20810;SDS011;10566;52.928;10.522;2023-04-15T10:21:34;78.40;;;35.57;;
20810;SDS011;10566;52.928;10.522;2023-04-15T10:24:00;85.83;;;37.40;;
20810;SDS011;10566;52.928;10.522;2023-04-15T10:26:27;79.00;;;35.20;;
20810;SDS011;10566;52.928;10.522;2023-04-15T10:28:53;79.43;;;36.40;;
20810;SDS011;10566;52.928;10.522;2023-04-15T10:31:20;75.67;;;34.97;;
20810;SDS011;10566;52.928;10.522;2023-04-15T10:33:46;84.57;;;37.50;;
20810;SDS011;10566;52.928;10.522;2023-04-15T10:36:12;72.77;;;35.17;;
20810;SDS011;10566;52.928;10.522;2023-04-15T10:38:40;77.63;;;35.23;;
20810;SDS011;10566;52.928;10.522;2023-04-15T10:41:14;81.60;;;35.93;;
20810;SDS011;10566;52.928;10.522;2023-04-15T10:43:50;75.83;;;35.33;;
20810;SDS011;10566;52.928;10.522;2023-04-15T10:46:24;77.97;;;35.87;;
20810;SDS011;10566;52.928;10.522;2023-04-15T10:49:12;74.17;;;35.97;;
20810;SDS011;10566;52.928;10.522;2023-04-15T10:51:39;76.33;;;35.83;;
20810;SDS011;10566;52.928;10.522;2023-04-15T10:54:14;64.40;;;33.43;;
20810;SDS011;10566;52.928;10.522;2023-04-15T10:56:41;63.77;;;33.07;;
20810;SDS011;10566;52.928;10.522;2023-04-15T10:59:08;65.40;;;33.53;;
20810;SDS011;10566;52.928;10.522;2023-04-15T11:01:57;60.63;;;33.07;;
20810;SDS011;10566;52.928;10.522;2023-04-15T11:07:10;61.30;;;31.37;;
20810;SDS011;10566;52.928;10.522;2023-04-15T11:09:36;58.23;;;32.17;;
20810;SDS011;10566;52.928;10.522;2023-04-15T11:12:06;54.93;;;30.63;;
20810;SDS011;10566;52.928;10.522;2023-04-15T11:14:33;52.70;;;29.47;;
20810;SDS011;10566;52.928;10.522;2023-04-15T11:17:02;56.00;;;29.43;;
20810;SDS011;10566;52.928;10.522;2023-04-15T11:19:37;58.77;;;30.03;;
20810;SDS011;10566;52.928;10.522;2023-04-15T11:22:07;52.47;;;29.90;;
20810;SDS011;10566;52.928;10.522;2023-04-15T11:24:34;50.80;;;29.20;;
20810;SDS011;10566;52.928;10.522;2023-04-15T11:27:00;51.40;;;29.97;;
20810;SDS011;10566;52.928;10.522;2023-04-15T11:29:30;49.70;;;28.30;;
20810;SDS011;10566;52.928;10.522;2023-04-15T11:32:07;47.90;;;28.67;;
20810;SDS011;10566;52.928;10.522;2023-04-15T11:34:34;47.70;;;28.50;;
20810;SDS011;10566;52.928;10.522;2023-04-15T11:37:02;46.77;;;28.27;;
20810;SDS011;10566;52.928;10.522;2023-04-15T11:39:29;43.20;;;26.17;;
20810;SDS011;10566;52.928;10.522;2023-04-15T11:41:55;45.17;;;27.20;;
20810;SDS011;10566;52.928;10.522;2023-04-15T11:44:21;46.10;;;27.87;;
20810;SDS011;10566;52.928;10.522;2023-04-15T11:46:47;41.07;;;26.53;;
20810;SDS011;10566;52.928;10.522;2023-04-15T11:49:26;43.90;;;26.03;;
20810;SDS011;10566;52.928;10.522;2023-04-15T11:51:52;39.17;;;25.30;;
20810;SDS011;10566;52.928;10.522;2023-04-15T11:54:18;41.53;;;25.50;;
20810;SDS011;10566;52.928;10.522;2023-04-15T11:56:49;42.93;;;25.80;;
20810;SDS011;10566;52.928;10.522;2023-04-15T11:59:15;39.83;;;24.90;;
20810;SDS011;10566;52.928;10.522;2023-04-15T12:01:41;37.07;;;23.40;;
20810;SDS011;10566;52.928;10.522;2023-04-15T12:04:10;36.60;;;24.00;;
20810;SDS011;10566;52.928;10.522;2023-04-15T12:06:37;37.27;;;24.27;;
20810;SDS011;10566;52.928;10.522;2023-04-15T12:11:36;48.37;;;31.10;;
20810;SDS011;10566;52.928;10.522;2023-04-15T12:16:29;36.47;;;23.77;;
20810;SDS011;10566;52.928;10.522;2023-04-15T12:18:56;33.40;;;22.77;;
20810;SDS011;10566;52.928;10.522;2023-04-15T12:21:23;34.03;;;22.90;;
20810;SDS011;10566;52.928;10.522;2023-04-15T12:23:50;32.83;;;21.83;;
20810;SDS011;10566;52.928;10.522;2023-04-15T12:26:17;30.33;;;20.93;;
20810;SDS011;10566;52.928;10.522;2023-04-15T12:28:43;32.43;;;22.27;;
20810;SDS011;10566;52.928;10.522;2023-04-15T12:31:10;32.27;;;21.63;;
20810;SDS011;10566;52.928;10.522;2023-04-15T12:33:40;32.43;;;20.20;;
20810;SDS011;10566;52.928;10.522;2023-04-15T12:36:06;32.23;;;19.90;;
20810;SDS011;10566;52.928;10.522;2023-04-15T12:38:32;27.73;;;19.73;;
20810;SDS011;10566;52.928;10.522;2023-04-15T12:40:58;30.00;;;19.87;;
20810;SDS011;10566;52.928;10.522;2023-04-15T12:43:24;30.93;;;20.17;;
20810;SDS011;10566;52.928;10.522;2023-04-15T12:45:50;26.37;;;18.07;;
20810;SDS011;10566;52.928;10.522;2023-04-15T12:48:16;25.97;;;18.60;;
20810;SDS011;10566;52.928;10.522;2023-04-15T12:50:42;25.03;;;18.33;;
20810;SDS011;10566;52.928;10.522;2023-04-15T12:53:08;25.80;;;18.20;;
20810;SDS011;10566;52.928;10.522;2023-04-15T12:55:34;24.07;;;18.87;;
20810;SDS011;10566;52.928;10.522;2023-04-15T12:57:59;27.07;;;18.03;;
20810;SDS011;10566;52.928;10.522;2023-04-15T13:00:25;22.43;;;16.43;;
20810;SDS011;10566;52.928;10.522;2023-04-15T13:02:51;25.23;;;16.60;;
20810;SDS011;10566;52.928;10.522;2023-04-15T13:05:18;23.13;;;16.67;;
20810;SDS011;10566;52.928;10.522;2023-04-15T13:07:44;27.67;;;17.57;;
20810;SDS011;10566;52.928;10.522;2023-04-15T13:10:10;22.93;;;16.57;;
20810;SDS011;10566;52.928;10.522;2023-04-15T13:12:36;26.03;;;16.20;;
20810;SDS011;10566;52.928;10.522;2023-04-15T13:15:03;21.63;;;15.80;;
20810;SDS011;10566;52.928;10.522;2023-04-15T13:17:29;21.73;;;15.97;;
20810;SDS011;10566;52.928;10.522;2023-04-15T13:19:55;22.57;;;15.93;;
20810;SDS011;10566;52.928;10.522;2023-04-15T13:22:21;21.87;;;15.60;;
20810;SDS011;10566;52.928;10.522;2023-04-15T13:24:47;21.43;;;14.90;;
20810;SDS011;10566;52.928;10.522;2023-04-15T13:27:13;21.90;;;14.60;;
20810;SDS011;10566;52.928;10.522;2023-04-15T13:29:39;19.20;;;14.13;;
20810;SDS011;10566;52.928;10.522;2023-04-15T13:32:05;18.47;;;13.87;;
20810;SDS011;10566;52.928;10.522;2023-04-15T13:34:31;18.50;;;12.87;;
20810;SDS011;10566;52.928;10.522;2023-04-15T13:36:57;19.17;;;13.63;;
20810;SDS011;10566;52.928;10.522;2023-04-15T13:39:23;21.60;;;13.60;;
20810;SDS011;10566;52.928;10.522;2023-04-15T13:41:49;17.77;;;13.60;;
20810;SDS011;10566;52.928;10.522;2023-04-15T13:44:15;18.00;;;12.57;;
20810;SDS011;10566;52.928;10.522;2023-04-15T13:46:41;18.37;;;13.27;;
20810;SDS011;10566;52.928;10.522;2023-04-15T13:49:07;19.07;;;12.80;;
20810;SDS011;10566;52.928;10.522;2023-04-15T13:51:33;19.13;;;14.17;;
20810;SDS011;10566;52.928;10.522;2023-04-15T13:54:00;21.93;;;16.73;;
20810;SDS011;10566;52.928;10.522;2023-04-15T13:56:27;23.60;;;17.23;;
20810;SDS011;10566;52.928;10.522;2023-04-15T13:58:53;23.87;;;17.23;;
20810;SDS011;10566;52.928;10.522;2023-04-15T14:01:22;26.00;;;17.70;;
20810;SDS011;10566;52.928;10.522;2023-04-15T14:03:48;22.57;;;15.57;;
20810;SDS011;10566;52.928;10.522;2023-04-15T14:06:15;20.57;;;14.87;;
20810;SDS011;10566;52.928;10.522;2023-04-15T14:08:40;22.07;;;15.17;;
20810;SDS011;10566;52.928;10.522;2023-04-15T14:11:06;20.20;;;14.80;;
20810;SDS011;10566;52.928;10.522;2023-04-15T14:13:32;21.70;;;14.70;;
20810;SDS011;10566;52.928;10.522;2023-04-15T14:15:58;19.97;;;14.57;;
20810;SDS011;10566;52.928;10.522;2023-04-15T14:18:24;18.90;;;13.00;;